createdAt,value
2023-04-24T19:45:19.686Z,60.09
2023-04-24T19:47:46.693Z,60.61
2023-04-24T19:50:14.860Z,61.60
2023-04-24T19:52:41.779Z,61.01
2023-04-24T19:55:09.002Z,59.91
2023-04-24T19:57:35.593Z,59.76
2023-04-24T20:00:02.822Z,60.14
2023-04-24T20:02:29.382Z,58.93
2023-04-24T20:04:56.140Z,60.90
2023-04-24T20:07:22.938Z,65.03
2023-04-24T20:09:49.414Z,61.56
2023-04-24T20:12:16.182Z,61.21
2023-04-24T20:14:42.750Z,60.31
2023-04-24T20:17:09.279Z,60.53
2023-04-24T20:19:36.027Z,61.77
2023-04-24T20:22:02.582Z,61.67
2023-04-24T20:24:29.102Z,61.97
2023-04-24T20:26:57.075Z,63.16
2023-04-24T20:29:23.558Z,63.57
2023-04-24T20:31:50.263Z,64.83
2023-04-24T20:34:16.948Z,62.61
2023-04-24T20:36:48.008Z,63.60
2023-04-24T20:39:16.047Z,63.94
2023-04-24T20:41:42.543Z,64.58
2023-04-24T20:44:09.073Z,64.50
2023-04-24T20:46:35.626Z,65.16
2023-04-24T20:49:03.524Z,64.98
2023-04-24T20:51:29.995Z,66.24
2023-04-24T20:53:56.530Z,64.88
2023-04-24T20:56:24.640Z,64.86
2023-04-24T20:58:53.857Z,63.21
2023-04-24T21:01:22.682Z,63.46
2023-04-24T21:03:49.571Z,64.69
2023-04-24T21:06:16.411Z,68.26
2023-04-24T21:08:42.931Z,67.82
2023-04-24T21:11:09.434Z,67.17
2023-04-24T21:13:35.931Z,68.08
2023-04-24T21:16:02.554Z,69.46
2023-04-24T21:18:29.047Z,69.88
2023-04-24T21:20:56.788Z,69.65
2023-04-24T21:23:23.263Z,69.93
2023-04-24T21:25:49.915Z,70.07
2023-04-24T21:28:16.570Z,72.00
2023-04-24T21:30:43.608Z,70.51
2023-04-24T21:33:10.528Z,71.60
2023-04-24T21:35:37.024Z,69.74
2023-04-24T21:38:03.773Z,69.80
2023-04-24T21:40:30.342Z,70.47
2023-04-24T21:42:56.905Z,70.03
2023-04-24T21:45:23.446Z,70.49
2023-04-24T21:47:50.047Z,70.91
2023-04-24T21:50:16.674Z,70.63
2023-04-24T21:52:43.264Z,71.47
2023-04-24T21:55:10.010Z,71.02
2023-04-24T21:57:36.620Z,72.13
2023-04-24T22:00:06.106Z,72.38
2023-04-24T22:02:32.599Z,73.56
2023-04-24T22:05:04.633Z,72.13
2023-04-24T22:07:35.907Z,72.25
2023-04-24T22:10:02.826Z,72.58
2023-04-24T22:12:29.318Z,72.79
2023-04-24T22:14:56.031Z,73.28
2023-04-24T22:17:23.583Z,73.71
2023-04-24T22:19:51.396Z,74.47
2023-04-24T22:22:18.208Z,73.73
2023-04-24T22:24:44.730Z,73.54
2023-04-24T22:27:11.179Z,73.25
2023-04-24T22:29:37.642Z,75.22
2023-04-24T22:32:04.233Z,76.12
2023-04-24T22:34:30.853Z,74.89
2023-04-24T22:36:57.391Z,75.72
2023-04-24T22:39:23.852Z,74.89
2023-04-24T22:41:50.531Z,74.53
2023-04-24T22:44:17.054Z,72.86
2023-04-24T22:46:43.654Z,72.06
2023-04-24T22:49:10.334Z,73.60
2023-04-24T22:51:37.402Z,73.23
2023-04-24T22:54:04.798Z,74.52
2023-04-24T22:56:32.070Z,73.85
2023-04-24T22:58:59.022Z,75.09
2023-04-24T23:01:27.310Z,79.04
2023-04-24T23:03:54.189Z,75.11
2023-04-24T23:06:21.470Z,75.62
2023-04-24T23:08:47.883Z,76.41
2023-04-24T23:11:14.399Z,74.22
2023-04-24T23:13:40.901Z,77.24
2023-04-24T23:16:07.528Z,74.51
2023-04-24T23:18:34.264Z,77.39
2023-04-24T23:21:02.410Z,75.61
2023-04-24T23:23:29.134Z,78.07
2023-04-24T23:25:55.683Z,80.77
2023-04-24T23:28:22.169Z,80.29
2023-04-24T23:30:48.657Z,81.77
2023-04-24T23:33:15.254Z,79.97
2023-04-24T23:35:41.842Z,82.70
2023-04-24T23:38:08.366Z,81.04
2023-04-24T23:40:34.790Z,81.94
2023-04-24T23:43:07.500Z,82.61
2023-04-24T23:45:35.481Z,83.64
2023-04-24T23:48:02.197Z,83.84
2023-04-24T23:50:28.752Z,83.84
2023-04-24T23:52:55.595Z,84.13
2023-04-24T23:55:22.168Z,84.66
2023-04-24T23:57:48.604Z,85.69
